sensor_id;sensor_type;location;lat;lon;timestamp;pressure;altitude;pressure_sealevel;temperature;humidity
55010;BME280;40903;51.638;7.528;2023-04-15T00:01:18;100268.91;;;7.86;88.44
55010;BME280;40903;51.638;7.528;2023-04-15T00:03:43;100270.84;;;7.80;88.79
55010;BME280;40903;51.638;7.528;2023-04-15T00:06:09;100267.06;;;7.76;89.06
55010;BME280;40903;51.638;7.528;2023-04-15T00:08:34;100262.75;;;7.75;89.27
55010;BME280;40903;51.638;7.528;2023-04-15T00:10:59;100268.72;;;7.72;89.40
55010;BME280;40903;51.638;7.528;2023-04-15T00:13:27;100263.91;;;7.65;89.88
55010;BME280;40903;51.638;7.528;2023-04-15T00:15:52;100262.59;;;7.57;90.36
55010;BME280;40903;51.638;7.528;2023-04-15T00:18:17;100258.00;;;7.53;91.24
55010;BME280;40903;51.638;7.528;2023-04-15T00:20:43;100258.31;;;7.51;90.95
55010;BME280;40903;51.638;7.528;2023-04-15T00:23:08;100263.19;;;7.49;91.24
55010;BME280;40903;51.638;7.528;2023-04-15T00:25:33;100261.28;;;7.50;91.33
55010;BME280;40903;51.638;7.528;2023-04-15T00:27:59;100259.94;;;7.47;91.12
55010;BME280;40903;51.638;7.528;2023-04-15T00:30:24;100259.41;;;7.45;91.30
55010;BME280;40903;51.638;7.528;2023-04-15T00:32:50;100256.44;;;7.47;91.41
55010;BME280;40903;51.638;7.528;2023-04-15T00:35:16;100253.47;;;7.43;91.71
55010;BME280;40903;51.638;7.528;2023-04-15T00:37:42;100252.09;;;7.41;91.54
55010;BME280;40903;51.638;7.528;2023-04-15T00:40:11;100243.19;;;7.35;92.16
55010;BME280;40903;51.638;7.528;2023-04-15T00:42:37;100253.78;;;7.37;92.13
55010;BME280;40903;51.638;7.528;2023-04-15T00:45:03;100251.63;;;7.34;92.27
55010;BME280;40903;51.638;7.528;2023-04-15T00:47:30;100258.72;;;7.30;92.43
55010;BME280;40903;51.638;7.528;2023-04-15T00:49:57;100252.50;;;7.24;92.49
55010;BME280;40903;51.638;7.528;2023-04-15T00:52:22;100258.75;;;7.20;93.17
55010;BME280;40903;51.638;7.528;2023-04-15T00:54:47;100262.56;;;7.19;93.11
55010;BME280;40903;51.638;7.528;2023-04-15T00:57:12;100261.50;;;7.15;93.76
55010;BME280;40903;51.638;7.528;2023-04-15T00:59:38;100255.56;;;7.08;93.88
55010;BME280;40903;51.638;7.528;2023-04-15T01:02:04;100255.28;;;7.04;94.91
55010;BME280;40903;51.638;7.528;2023-04-15T01:04:29;100250.69;;;7.05;94.90
55010;BME280;40903;51.638;7.528;2023-04-15T01:06:56;100247.47;;;7.03;94.86
55010;BME280;40903;51.638;7.528;2023-04-15T01:09:21;100251.53;;;7.00;95.03
55010;BME280;40903;51.638;7.528;2023-04-15T01:11:47;100241.50;;;6.96;95.12
55010;BME280;40903;51.638;7.528;2023-04-15T01:14:12;100245.88;;;6.92;94.85
55010;BME280;40903;51.638;7.528;2023-04-15T01:16:38;100246.44;;;6.89;94.81
55010;BME280;40903;51.638;7.528;2023-04-15T01:19:08;100252.94;;;6.83;94.57
55010;BME280;40903;51.638;7.528;2023-04-15T01:21:38;100248.63;;;6.77;94.59
55010;BME280;40903;51.638;7.528;2023-04-15T01:24:08;100251.63;;;6.70;94.61
55010;BME280;40903;51.638;7.528;2023-04-15T01:26:38;100247.59;;;6.63;94.72
55010;BME280;40903;51.638;7.528;2023-04-15T01:29:03;100251.13;;;6.58;94.89
55010;BME280;40903;51.638;7.528;2023-04-15T01:31:29;100254.13;;;6.52;95.31
55010;BME280;40903;51.638;7.528;2023-04-15T01:33:54;100253.09;;;6.43;96.41
55010;BME280;40903;51.638;7.528;2023-04-15T01:36:20;100262.84;;;6.39;96.99
55010;BME280;40903;51.638;7.528;2023-04-15T01:38:45;100263.91;;;6.38;98.23
55010;BME280;40903;51.638;7.528;2023-04-15T01:41:12;100260.13;;;6.34;98.29
55010;BME280;40903;51.638;7.528;2023-04-15T01:43:38;100258.81;;;6.31;98.36
55010;BME280;40903;51.638;7.528;2023-04-15T01:46:03;100253.13;;;6.28;98.78
55010;BME280;40903;51.638;7.528;2023-04-15T01:48:29;100266.13;;;6.26;98.85
55010;BME280;40903;51.638;7.528;2023-04-15T01:50:54;100268.28;;;6.24;99.09
55010;BME280;40903;51.638;7.528;2023-04-15T01:53:22;100258.81;;;6.21;99.22
55010;BME280;40903;51.638;7.528;2023-04-15T01:55:48;100250.97;;;6.15;100.00
55010;BME280;40903;51.638;7.528;2023-04-15T01:58:14;100253.94;;;6.13;100.00
55010;BME280;40903;51.638;7.528;2023-04-15T02:00:39;100247.16;;;6.16;100.00
55010;BME280;40903;51.638;7.528;2023-04-15T02:03:05;100258.81;;;6.16;100.00
55010;BME280;40903;51.638;7.528;2023-04-15T02:05:31;100250.97;;;6.15;100.00
55010;BME280;40903;51.638;7.528;2023-04-15T02:07:56;100248.50;;;6.13;100.00
55010;BME280;40903;51.638;7.528;2023-04-15T02:10:22;100253.41;;;6.11;100.00
55010;BME280;40903;51.638;7.528;2023-04-15T02:12:47;100253.69;;;6.10;100.00
55010;BME280;40903;51.638;7.528;2023-04-15T02:15:13;100258.81;;;6.06;100.00
55010;BME280;40903;51.638;7.528;2023-04-15T02:17:39;100259.63;;;6.02;100.00
55010;BME280;40903;51.638;7.528;2023-04-15T02:20:05;100255.31;;;6.01;100.00
55010;BME280;40903;51.638;7.528;2023-04-15T02:22:30;100265.59;;;5.99;100.00
55010;BME280;40903;51.638;7.528;2023-04-15T02:24:56;100261.53;;;5.96;100.00
55010;BME280;40903;51.638;7.528;2023-04-15T02:27:21;100265.84;;;5.97;100.00
55010;BME280;40903;51.638;7.528;2023-04-15T02:29:47;100262.59;;;5.95;100.00
55010;BME280;40903;51.638;7.528;2023-04-15T02:32:14;100268.03;;;5.95;100.00
55010;BME280;40903;51.638;7.528;2023-04-15T02:34:40;100271.53;;;5.91;100.00
55010;BME280;40903;51.638;7.528;2023-04-15T02:37:10;100275.59;;;5.88;100.00
55010;BME280;40903;51.638;7.528;2023-04-15T02:39:36;100277.50;;;5.88;100.00
55010;BME280;40903;51.638;7.528;2023-04-15T02:42:02;100274.00;;;5.87;100.00
55010;BME280;40903;51.638;7.528;2023-04-15T02:44:27;100285.31;;;5.84;100.00
55010;BME280;40903;51.638;7.528;2023-04-15T02:46:53;100283.16;;;5.81;100.00
55010;BME280;40903;51.638;7.528;2023-04-15T02:49:21;100288.56;;;5.81;100.00
55010;BME280;40903;51.638;7.528;2023-04-15T02:51:47;100290.72;;;5.84;100.00
55010;BME280;40903;51.638;7.528;2023-04-15T02:54:15;100294.53;;;5.83;100.00
55010;BME280;40903;51.638;7.528;2023-04-15T02:56:40;100294.78;;;5.92;100.00
55010;BME280;40903;51.638;7.528;2023-04-15T02:59:06;100298.84;;;5.99;100.00
55010;BME280;40903;51.638;7.528;2023-04-15T03:01:31;100300.78;;;5.99;100.00
55010;BME280;40903;51.638;7.528;2023-04-15T03:03:56;100302.66;;;5.98;100.00
55010;BME280;40903;51.638;7.528;2023-04-15T03:06:22;100306.72;;;6.01;100.00
55010;BME280;40903;51.638;7.528;2023-04-15T03:08:48;100312.13;;;6.01;100.00
55010;BME280;40903;51.638;7.528;2023-04-15T03:11:14;100312.13;;;6.01;100.00
55010;BME280;40903;51.638;7.528;2023-04-15T03:13:40;100311.06;;;5.97;100.00
55010;BME280;40903;51.638;7.528;2023-04-15T03:16:07;100315.94;;;5.95;100.00
55010;BME280;40903;51.638;7.528;2023-04-15T03:18:32;100309.94;;;5.93;100.00
55010;BME280;40903;51.638;7.528;2023-04-15T03:20:58;100312.94;;;5.91;100.00
55010;BME280;40903;51.638;7.528;2023-04-15T03:23:24;100313.75;;;5.87;100.00
55010;BME280;40903;51.638;7.528;2023-04-15T03:25:49;100307.25;;;5.88;100.00
55010;BME280;40903;51.638;7.528;2023-04-15T03:28:15;100309.97;;;5.83;100.00
55010;BME280;40903;51.638;7.528;2023-04-15T03:30:40;100319.09;;;5.77;100.00
55010;BME280;40903;51.638;7.528;2023-04-15T03:33:06;100307.50;;;5.72;100.00
55010;BME280;40903;51.638;7.528;2023-04-15T03:35:31;100319.09;;;5.72;100.00
55010;BME280;40903;51.638;7.528;2023-04-15T03:37:56;100318.31;;;5.72;100.00
55010;BME280;40903;51.638;7.528;2023-04-15T03:40:22;100320.44;;;5.69;100.00
55010;BME280;40903;51.638;7.528;2023-04-15T03:42:47;100318.81;;;5.68;100.00
55010;BME280;40903;51.638;7.528;2023-04-15T03:45:12;100321.81;;;5.67;100.00
55010;BME280;40903;51.638;7.528;2023-04-15T03:47:38;100320.44;;;5.65;100.00
55010;BME280;40903;51.638;7.528;2023-04-15T03:50:03;100332.59;;;5.62;100.00
55010;BME280;40903;51.638;7.528;2023-04-15T03:52:29;100325.31;;;5.58;100.00
55010;BME280;40903;51.638;7.528;2023-04-15T03:54:54;100329.59;;;5.54;100.00
55010;BME280;40903;51.638;7.528;2023-04-15T03:57:20;100323.66;;;5.52;100.00
55010;BME280;40903;51.638;7.528;2023-04-15T03:59:45;100319.88;;;5.48;100.00
55010;BME280;40903;51.638;7.528;2023-04-15T04:02:10;100320.66;;;5.43;100.00
55010;BME280;40903;51.638;7.528;2023-04-15T04:04:36;100331.72;;;5.37;100.00
55010;BME280;40903;51.638;7.528;2023-04-15T04:07:01;100326.03;;;5.33;100.00
55010;BME280;40903;51.638;7.528;2023-04-15T04:09:27;100328.19;;;5.31;100.00
55010;BME280;40903;51.638;7.528;2023-04-15T04:11:52;100324.41;;;5.27;100.00
55010;BME280;40903;51.638;7.528;2023-04-15T04:14:17;100319.53;;;5.24;100.00
55010;BME280;40903;51.638;7.528;2023-04-15T04:16:42;100327.09;;;5.22;100.00
55010;BME280;40903;51.638;7.528;2023-04-15T04:19:08;100326.53;;;5.20;100.00
55010;BME280;40903;51.638;7.528;2023-04-15T04:21:34;100328.97;;;5.17;100.00
55010;BME280;40903;51.638;7.528;2023-04-15T04:24:00;100335.69;;;5.14;100.00
55010;BME280;40903;51.638;7.528;2023-04-15T04:26:26;100333.53;;;5.11;100.00
55010;BME280;40903;51.638;7.528;2023-04-15T04:28:51;100341.09;;;5.09;100.00
55010;BME280;40903;51.638;7.528;2023-04-15T04:31:17;100340.00;;;5.05;100.00
55010;BME280;40903;51.638;7.528;2023-04-15T04:33:43;100341.31;;;5.03;100.00
55010;BME280;40903;51.638;7.528;2023-04-15T04:36:08;100342.94;;;4.99;100.00
55010;BME280;40903;51.638;7.528;2023-04-15T04:38:33;100354.28;;;4.96;100.00
55010;BME280;40903;51.638;7.528;2023-04-15T04:40:59;100353.97;;;4.92;100.00
55010;BME280;40903;51.638;7.528;2023-04-15T04:43:25;100348.03;;;4.90;100.00
55010;BME280;40903;51.638;7.528;2023-04-15T04:45:50;100355.56;;;4.88;100.00
55010;BME280;40903;51.638;7.528;2023-04-15T04:48:16;100357.16;;;4.84;100.00
55010;BME280;40903;51.638;7.528;2023-04-15T04:50:41;100353.91;;;4.82;100.00
55010;BME280;40903;51.638;7.528;2023-04-15T04:53:07;100357.13;;;4.79;100.00
55010;BME280;40903;51.638;7.528;2023-04-15T04:55:32;100357.38;;;4.78;100.00
55010;BME280;40903;51.638;7.528;2023-04-15T04:58:01;100360.38;;;4.76;100.00
55010;BME280;40903;51.638;7.528;2023-04-15T05:00:26;100364.38;;;4.74;100.00
55010;BME280;40903;51.638;7.528;2023-04-15T05:02:51;100365.72;;;4.71;100.00
55010;BME280;40903;51.638;7.528;2023-04-15T05:05:17;100369.00;;;4.73;100.00
55010;BME280;40903;51.638;7.528;2023-04-15T05:07:42;100368.47;;;4.76;100.00
55010;BME280;40903;51.638;7.528;2023-04-15T05:10:08;100376.56;;;4.76;100.00
55010;BME280;40903;51.638;7.528;2023-04-15T05:12:34;100386.28;;;4.77;100.00
55010;BME280;40903;51.638;7.528;2023-04-15T05:14:59;100382.25;;;4.80;100.00
55010;BME280;40903;51.638;7.528;2023-04-15T05:17:25;100388.47;;;4.80;100.00
55010;BME280;40903;51.638;7.528;2023-04-15T05:19:50;100392.78;;;4.81;100.00
55010;BME280;40903;51.638;7.528;2023-04-15T05:22:16;100388.25;;;4.87;100.00
55010;BME280;40903;51.638;7.528;2023-04-15T05:24:41;100389.34;;;4.91;100.00
55010;BME280;40903;51.638;7.528;2023-04-15T05:27:06;100393.13;;;4.95;100.00
55010;BME280;40903;51.638;7.528;2023-04-15T05:29:33;100396.69;;;5.00;100.00
55010;BME280;40903;51.638;7.528;2023-04-15T05:31:58;100402.13;;;5.05;100.00
55010;BME280;40903;51.638;7.528;2023-04-15T05:34:23;100395.66;;;5.11;100.00
55010;BME280;40903;51.638;7.528;2023-04-15T05:36:49;100409.19;;;5.16;100.00
55010;BME280;40903;51.638;7.528;2023-04-15T05:39:14;100409.78;;;5.23;100.00
55010;BME280;40903;51.638;7.528;2023-04-15T05:41:40;100413.34;;;5.29;100.00
55010;BME280;40903;51.638;7.528;2023-04-15T05:44:05;100415.53;;;5.37;100.00
55010;BME280;40903;51.638;7.528;2023-04-15T05:46:31;100416.13;;;5.44;100.00
55010;BME280;40903;51.638;7.528;2023-04-15T05:48:56;100427.22;;;5.52;100.00
55010;BME280;40903;51.638;7.528;2023-04-15T05:51:21;100420.50;;;5.60;100.00
55010;BME280;40903;51.638;7.528;2023-04-15T05:53:47;100428.38;;;5.66;100.00
55010;BME280;40903;51.638;7.528;2023-04-15T05:56:12;100436.50;;;5.76;100.00
55010;BME280;40903;51.638;7.528;2023-04-15T05:58:37;100432.00;;;5.86;100.00
55010;BME280;40903;51.638;7.528;2023-04-15T06:01:03;100434.16;;;5.94;100.00
55010;BME280;40903;51.638;7.528;2023-04-15T06:03:28;100437.69;;;6.05;100.00
55010;BME280;40903;51.638;7.528;2023-04-15T06:05:54;100443.41;;;6.13;100.00
55010;BME280;40903;51.638;7.528;2023-04-15T06:08:20;100442.59;;;6.23;100.00
55010;BME280;40903;51.638;7.528;2023-04-15T06:10:46;100441.81;;;6.32;100.00
55010;BME280;40903;51.638;7.528;2023-04-15T06:13:11;100445.06;;;6.39;100.00
55010;BME280;40903;51.638;7.528;2023-04-15T06:15:37;100438.59;;;6.50;100.00
55010;BME280;40903;51.638;7.528;2023-04-15T06:18:02;100446.69;;;6.60;100.00
55010;BME280;40903;51.638;7.528;2023-04-15T06:20:27;100454.03;;;6.70;100.00
55010;BME280;40903;51.638;7.528;2023-04-15T06:22:53;100455.09;;;6.79;100.00
55010;BME280;40903;51.638;7.528;2023-04-15T06:25:18;100461.31;;;6.89;100.00
55010;BME280;40903;51.638;7.528;2023-04-15T06:27:44;100463.25;;;6.99;100.00
55010;BME280;40903;51.638;7.528;2023-04-15T06:30:09;100463.19;;;7.09;100.00
55010;BME280;40903;51.638;7.528;2023-04-15T06:32:34;100470.25;;;7.20;100.00
55010;BME280;40903;51.638;7.528;2023-04-15T06:35:00;100472.13;;;7.29;100.00
55010;BME280;40903;51.638;7.528;2023-04-15T06:37:25;100471.56;;;7.37;100.00
55010;BME280;40903;51.638;7.528;2023-04-15T06:39:50;100470.72;;;7.47;100.00
55010;BME280;40903;51.638;7.528;2023-04-15T06:42:15;100469.59;;;7.58;100.00
55010;BME280;40903;51.638;7.528;2023-04-15T06:44:41;100470.38;;;7.68;100.00
55010;BME280;40903;51.638;7.528;2023-04-15T06:47:06;100473.88;;;7.78;100.00
55010;BME280;40903;51.638;7.528;2023-04-15T06:49:31;100480.09;;;7.84;100.00
55010;BME280;40903;51.638;7.528;2023-04-15T06:51:57;100469.47;;;7.92;100.00
55010;BME280;40903;51.638;7.528;2023-04-15T06:54:23;100478.63;;;8.01;100.00
55010;BME280;40903;51.638;7.528;2023-04-15T06:56:48;100477.75;;;8.11;100.00
55010;BME280;40903;51.638;7.528;2023-04-15T06:59:13;100481.56;;;8.20;100.00
55010;BME280;40903;51.638;7.528;2023-04-15T07:01:39;100481.78;;;8.28;100.00
55010;BME280;40903;51.638;7.528;2023-04-15T07:04:04;100476.84;;;8.35;100.00
55010;BME280;40903;51.638;7.528;2023-04-15T07:06:30;100483.31;;;8.44;100.00
55010;BME280;40903;51.638;7.528;2023-04-15T07:08:56;100484.91;;;8.50;100.00
55010;BME280;40903;51.638;7.528;2023-04-15T07:11:22;100487.00;;;8.58;100.00
55010;BME280;40903;51.638;7.528;2023-04-15T07:13:47;100484.81;;;8.65;100.00
55010;BME280;40903;51.638;7.528;2023-04-15T07:16:12;100482.84;;;8.71;100.00
55010;BME280;40903;51.638;7.528;2023-04-15T07:18:38;100483.00;;;8.84;100.00
55010;BME280;40903;51.638;7.528;2023-04-15T07:21:03;100487.81;;;8.92;100.00
55010;BME280;40903;51.638;7.528;2023-04-15T07:23:29;100487.22;;;9.00;100.00
55010;BME280;40903;51.638;7.528;2023-04-15T07:25:54;100483.88;;;9.08;97.86
55010;BME280;40903;51.638;7.528;2023-04-15T07:28:19;100484.88;;;9.17;97.13
55010;BME280;40903;51.638;7.528;2023-04-15T07:30:45;100477.22;;;9.24;96.42
55010;BME280;40903;51.638;7.528;2023-04-15T07:33:10;100478.72;;;9.35;96.92
55010;BME280;40903;51.638;7.528;2023-04-15T07:35:36;100482.91;;;9.51;97.21
55010;BME280;40903;51.638;7.528;2023-04-15T07:38:01;100474.56;;;9.66;95.56
55010;BME280;40903;51.638;7.528;2023-04-15T07:40:27;100484.31;;;9.72;93.72
55010;BME280;40903;51.638;7.528;2023-04-15T07:42:52;100485.00;;;9.82;93.63
55010;BME280;40903;51.638;7.528;2023-04-15T07:45:20;100491.63;;;9.95;93.32
55010;BME280;40903;51.638;7.528;2023-04-15T07:47:45;100492.81;;;9.89;92.74
55010;BME280;40903;51.638;7.528;2023-04-15T07:50:12;100503.63;;;9.94;91.49
55010;BME280;40903;51.638;7.528;2023-04-15T07:52:37;100493.78;;;9.98;91.16
55010;BME280;40903;51.638;7.528;2023-04-15T07:55:06;100500.31;;;10.02;89.95
55010;BME280;40903;51.638;7.528;2023-04-15T07:57:35;100502.69;;;10.08;89.84
55010;BME280;40903;51.638;7.528;2023-04-15T08:00:01;100502.25;;;10.20;89.44
55010;BME280;40903;51.638;7.528;2023-04-15T08:02:27;100496.09;;;10.33;89.79
55010;BME280;40903;51.638;7.528;2023-04-15T08:04:53;100494.22;;;10.28;88.25
55010;BME280;40903;51.638;7.528;2023-04-15T08:07:18;100502.78;;;10.40;89.05
55010;BME280;40903;51.638;7.528;2023-04-15T08:09:43;100506.25;;;10.46;87.92
55010;BME280;40903;51.638;7.528;2023-04-15T08:12:09;100500.63;;;10.56;86.80
55010;BME280;40903;51.638;7.528;2023-04-15T08:14:37;100501.59;;;10.65;86.56
55010;BME280;40903;51.638;7.528;2023-04-15T08:17:02;100512.44;;;10.70;86.86
55010;BME280;40903;51.638;7.528;2023-04-15T08:19:28;100514.72;;;10.63;86.70
55010;BME280;40903;51.638;7.528;2023-04-15T08:21:53;100508.00;;;10.74;87.28
55010;BME280;40903;51.638;7.528;2023-04-15T08:24:19;100513.44;;;10.74;86.44
55010;BME280;40903;51.638;7.528;2023-04-15T08:26:44;100515.09;;;10.75;86.77
55010;BME280;40903;51.638;7.528;2023-04-15T08:29:10;100509.63;;;10.75;85.90
55010;BME280;40903;51.638;7.528;2023-04-15T08:31:36;100510.16;;;10.77;87.06
55010;BME280;40903;51.638;7.528;2023-04-15T08:34:01;100515.94;;;10.89;86.39
55010;BME280;40903;51.638;7.528;2023-04-15T08:36:26;100519.22;;;10.91;84.70
55010;BME280;40903;51.638;7.528;2023-04-15T08:38:52;100521.63;;;10.92;86.04
55010;BME280;40903;51.638;7.528;2023-04-15T08:41:21;100520.72;;;10.97;85.80
55010;BME280;40903;51.638;7.528;2023-04-15T08:43:56;100514.00;;;11.08;84.62
55010;BME280;40903;51.638;7.528;2023-04-15T08:46:21;100526.97;;;11.16;83.61
55010;BME280;40903;51.638;7.528;2023-04-15T08:48:47;100525.28;;;11.20;85.16
55010;BME280;40903;51.638;7.528;2023-04-15T08:51:13;100526.44;;;11.14;84.33
55010;BME280;40903;51.638;7.528;2023-04-15T08:53:40;100533.25;;;11.16;83.37
55010;BME280;40903;51.638;7.528;2023-04-15T08:56:06;100534.97;;;11.26;83.50
55010;BME280;40903;51.638;7.528;2023-04-15T08:58:34;100537.22;;;11.24;84.05
55010;BME280;40903;51.638;7.528;2023-04-15T09:00:59;100537.50;;;11.22;84.11
55010;BME280;40903;51.638;7.528;2023-04-15T09:03:25;100543.34;;;11.16;84.52
55010;BME280;40903;51.638;7.528;2023-04-15T09:05:50;100544.38;;;11.20;85.10
55010;BME280;40903;51.638;7.528;2023-04-15T09:08:16;100538.91;;;11.20;84.09
55010;BME280;40903;51.638;7.528;2023-04-15T09:10:41;100546.00;;;11.21;84.56
55010;BME280;40903;51.638;7.528;2023-04-15T09:13:07;100556.09;;;11.20;84.86
55010;BME280;40903;51.638;7.528;2023-04-15T09:15:32;100550.84;;;11.24;85.12
55010;BME280;40903;51.638;7.528;2023-04-15T09:17:57;100550.13;;;11.18;84.46
55010;BME280;40903;51.638;7.528;2023-04-15T09:20:22;100558.31;;;11.18;84.71
55010;BME280;40903;51.638;7.528;2023-04-15T09:22:48;100553.97;;;11.17;85.28
55010;BME280;40903;51.638;7.528;2023-04-15T09:27:47;100563.81;;;11.32;85.29
55010;BME280;40903;51.638;7.528;2023-04-15T09:30:12;100561.03;;;11.50;85.75
55010;BME280;40903;51.638;7.528;2023-04-15T09:32:46;100561.06;;;11.64;84.39
55010;BME280;40903;51.638;7.528;2023-04-15T09:35:11;100570.09;;;11.77;82.45
55010;BME280;40903;51.638;7.528;2023-04-15T09:37:37;100571.22;;;11.76;82.72
55010;BME280;40903;51.638;7.528;2023-04-15T09:40:02;100575.56;;;11.77;82.92
55010;BME280;40903;51.638;7.528;2023-04-15T09:42:27;100577.34;;;11.87;83.61
55010;BME280;40903;51.638;7.528;2023-04-15T09:44:53;100574.78;;;11.90;82.47
55010;BME280;40903;51.638;7.528;2023-04-15T09:47:28;100576.09;;;11.93;82.46
55010;BME280;40903;51.638;7.528;2023-04-15T09:49:54;100576.50;;;11.86;81.78
55010;BME280;40903;51.638;7.528;2023-04-15T09:52:19;100574.66;;;11.82;81.06
55010;BME280;40903;51.638;7.528;2023-04-15T09:54:45;100577.13;;;11.83;83.17
55010;BME280;40903;51.638;7.528;2023-04-15T09:57:10;100582.88;;;11.82;83.44
55010;BME280;40903;51.638;7.528;2023-04-15T09:59:36;100583.47;;;11.79;83.35
55010;BME280;40903;51.638;7.528;2023-04-15T10:02:03;100581.63;;;11.74;83.39
55010;BME280;40903;51.638;7.528;2023-04-15T10:04:29;100592.28;;;11.76;83.76
55010;BME280;40903;51.638;7.528;2023-04-15T10:06:55;100589.22;;;11.77;83.91
55010;BME280;40903;51.638;7.528;2023-04-15T10:09:21;100592.19;;;11.81;83.91
55010;BME280;40903;51.638;7.528;2023-04-15T10:11:46;100591.47;;;11.75;84.71
55010;BME280;40903;51.638;7.528;2023-04-15T10:14:13;100594.50;;;11.74;84.11
55010;BME280;40903;51.638;7.528;2023-04-15T10:16:40;100595.50;;;11.65;84.24
55010;BME280;40903;51.638;7.528;2023-04-15T10:19:07;100594.38;;;11.66;84.32
55010;BME280;40903;51.638;7.528;2023-04-15T10:21:33;100598.75;;;11.67;84.76
55010;BME280;40903;51.638;7.528;2023-04-15T10:23:59;100599.53;;;11.67;84.53
55010;BME280;40903;51.638;7.528;2023-04-15T10:26:25;100594.78;;;11.59;84.70
55010;BME280;40903;51.638;7.528;2023-04-15T10:28:51;100607.34;;;11.55;84.74
55010;BME280;40903;51.638;7.528;2023-04-15T10:31:17;100604.13;;;11.53;86.08
55010;BME280;40903;51.638;7.528;2023-04-15T10:33:43;100611.16;;;11.59;85.92
55010;BME280;40903;51.638;7.528;2023-04-15T10:36:10;100618.03;;;11.57;85.99
55010;BME280;40903;51.638;7.528;2023-04-15T10:38:39;100615.28;;;11.57;85.83
55010;BME280;40903;51.638;7.528;2023-04-15T10:41:20;100615.88;;;11.54;85.45
55010;BME280;40903;51.638;7.528;2023-04-15T10:46:40;100616.34;;;11.42;86.97
55010;BME280;40903;51.638;7.528;2023-04-15T10:51:37;100618.09;;;11.52;87.60
55010;BME280;40903;51.638;7.528;2023-04-15T10:54:05;100628.94;;;11.38;87.02
55010;BME280;40903;51.638;7.528;2023-04-15T10:56:32;100620.75;;;11.38;88.31
55010;BME280;40903;51.638;7.528;2023-04-15T10:58:58;100625.94;;;11.40;89.55
55010;BME280;40903;51.638;7.528;2023-04-15T11:01:48;100624.31;;;11.39;90.35
55010;BME280;40903;51.638;7.528;2023-04-15T11:04:09;100624.00;;;11.40;90.46
55010;BME280;40903;51.638;7.528;2023-04-15T11:06:42;100631.00;;;11.46;90.90
55010;BME280;40903;51.638;7.528;2023-04-15T11:09:11;100629.44;;;11.59;92.50
55010;BME280;40903;51.638;7.528;2023-04-15T11:14:32;100634.13;;;11.58;91.91
55010;BME280;40903;51.638;7.528;2023-04-15T11:16:59;100636.03;;;11.58;91.56
55010;BME280;40903;51.638;7.528;2023-04-15T11:19:24;100631.69;;;11.57;91.89
55010;BME280;40903;51.638;7.528;2023-04-15T11:21:50;100638.50;;;11.54;92.51
55010;BME280;40903;51.638;7.528;2023-04-15T11:24:24;100639.63;;;11.53;92.06
55010;BME280;40903;51.638;7.528;2023-04-15T11:26:56;100640.72;;;11.52;92.92
55010;BME280;40903;51.638;7.528;2023-04-15T11:29:21;100640.44;;;11.54;94.82
55010;BME280;40903;51.638;7.528;2023-04-15T11:31:47;100653.06;;;11.50;93.93
55010;BME280;40903;51.638;7.528;2023-04-15T11:34:13;100653.28;;;11.53;95.57
55010;BME280;40903;51.638;7.528;2023-04-15T11:36:46;100659.00;;;11.57;94.80
55010;BME280;40903;51.638;7.528;2023-04-15T11:39:12;100652.13;;;11.59;95.31
55010;BME280;40903;51.638;7.528;2023-04-15T11:41:37;100660.44;;;11.68;95.38
55010;BME280;40903;51.638;7.528;2023-04-15T11:44:14;100656.25;;;11.57;95.35
55010;BME280;40903;51.638;7.528;2023-04-15T11:46:40;100664.19;;;11.53;95.49
55010;BME280;40903;51.638;7.528;2023-04-15T11:49:05;100668.34;;;11.51;97.90
55010;BME280;40903;51.638;7.528;2023-04-15T11:51:31;100667.91;;;11.44;98.85
55010;BME280;40903;51.638;7.528;2023-04-15T11:53:56;100661.41;;;11.40;98.22
55010;BME280;40903;51.638;7.528;2023-04-15T11:56:23;100667.09;;;11.43;99.96
55010;BME280;40903;51.638;7.528;2023-04-15T11:58:51;100666.78;;;11.45;100.00
55010;BME280;40903;51.638;7.528;2023-04-15T12:01:17;100671.88;;;11.51;99.46
55010;BME280;40903;51.638;7.528;2023-04-15T12:03:44;100671.38;;;11.49;99.13
55010;BME280;40903;51.638;7.528;2023-04-15T12:06:16;100679.78;;;11.34;99.10
55010;BME280;40903;51.638;7.528;2023-04-15T12:16:31;100681.03;;;11.42;100.00
55010;BME280;40903;51.638;7.528;2023-04-15T12:18:57;100686.88;;;11.35;100.00
55010;BME280;40903;51.638;7.528;2023-04-15T12:21:26;100691.06;;;11.28;100.00
55010;BME280;40903;51.638;7.528;2023-04-15T12:23:53;100687.19;;;11.15;100.00
55010;BME280;40903;51.638;7.528;2023-04-15T12:26:29;100689.06;;;11.15;100.00
55010;BME280;40903;51.638;7.528;2023-04-15T12:28:54;100694.53;;;11.15;100.00
55010;BME280;40903;51.638;7.528;2023-04-15T12:31:21;100698.59;;;11.17;100.00
55010;BME280;40903;51.638;7.528;2023-04-15T12:33:47;100708.13;;;11.20;100.00
55010;BME280;40903;51.638;7.528;2023-04-15T12:36:13;100711.22;;;11.13;100.00
55010;BME280;40903;51.638;7.528;2023-04-15T12:38:38;100713.34;;;11.16;100.00
55010;BME280;40903;51.638;7.528;2023-04-15T12:41:04;100721.84;;;11.15;100.00
55010;BME280;40903;51.638;7.528;2023-04-15T12:43:29;100722.94;;;11.14;100.00
55010;BME280;40903;51.638;7.528;2023-04-15T12:45:54;100724.31;;;11.11;100.00
55010;BME280;40903;51.638;7.528;2023-04-15T12:48:20;100730.09;;;11.10;100.00
55010;BME280;40903;51.638;7.528;2023-04-15T12:50:45;100724.91;;;11.08;100.00
55010;BME280;40903;51.638;7.528;2023-04-15T12:53:10;100733.47;;;11.02;100.00
55010;BME280;40903;51.638;7.528;2023-04-15T12:55:36;100732.94;;;11.00;100.00
55010;BME280;40903;51.638;7.528;2023-04-15T12:58:01;100733.81;;;10.95;100.00
55010;BME280;40903;51.638;7.528;2023-04-15T13:00:26;100733.03;;;10.95;100.00
55010;BME280;40903;51.638;7.528;2023-04-15T13:02:52;100739.06;;;10.92;100.00